Time;durP1;ratioP1;P1;durP2;ratioP2;P2;SDS_P1;SDS_P2;PMS_P1;PMS_P2;Temp;Humidity;BMP_temperature;BMP_pressure;BME280_temperature;BME280_humidity;BME280_pressure;Samples;Min_cycle;Max_cycle;Signal;HPM_P1;HPM_P2
2022/10/29 00:01:14;;;;;;;18.80;5.00;;;;;;;;;;5089384;28;20043;-73
2022/10/29 00:03:40;;;;;;;14.82;5.15;;;;;;;;;;5091046;28;20434;-75
2022/10/29 00:06:09;;;;;;;21.17;5.55;;;;;;;;;;5090938;28;20057;-76
2022/10/29 00:08:36;;;;;;;20.98;5.82;;;;;;;;;;5091067;28;20027;-74
2022/10/29 00:11:17;;;;;;;20.95;5.20;;;;;;;;;;5090567;28;20645;-74
2022/10/29 00:13:43;;;;;;;17.00;5.03;;;;;;;;;;5073084;28;20048;-77
2022/10/29 00:16:20;;;;;;;19.55;5.40;;;;;;;;;;5090741;28;20107;-74
2022/10/29 00:18:45;;;;;;;16.83;4.85;;;;;;;;;;5090851;28;20031;-77
2022/10/29 00:21:13;;;;;;;16.38;5.07;;;;;;;;;;5072093;28;20020;-76
2022/10/29 00:23:39;;;;;;;19.63;5.00;;;;;;;;;;5090938;28;20092;-77
2022/10/29 00:26:05;;;;;;;13.32;4.55;;;;;;;;;;5090710;28;20027;-77
2022/10/29 00:28:31;;;;;;;19.58;4.93;;;;;;;;;;5089196;28;20107;-77
2022/10/29 00:31:00;;;;;;;19.58;4.82;;;;;;;;;;5073057;28;20350;-75
2022/10/29 00:33:25;;;;;;;15.50;5.07;;;;;;;;;;5095551;28;20104;-74
2022/10/29 00:36:00;;;;;;;19.63;5.10;;;;;;;;;;5093680;28;20242;-74
2022/10/29 00:38:26;;;;;;;21.30;5.20;;;;;;;;;;5097078;28;20032;-75
2022/10/29 00:40:53;;;;;;;15.50;4.72;;;;;;;;;;5090823;28;20581;-73
2022/10/29 00:43:20;;;;;;;20.90;5.03;;;;;;;;;;5072061;28;20024;-74
2022/10/29 00:45:52;;;;;;;19.98;4.68;;;;;;;;;;5090161;28;20020;-75
2022/10/29 00:48:19;;;;;;;16.60;4.63;;;;;;;;;;5090357;28;20020;-74
2022/10/29 00:50:47;;;;;;;17.92;4.55;;;;;;;;;;5088488;28;20487;-74
2022/10/29 00:53:13;;;;;;;16.42;5.00;;;;;;;;;;5090410;28;20189;-74
2022/10/29 00:55:39;;;;;;;19.42;5.30;;;;;;;;;;5089882;28;20085;-75
2022/10/29 00:58:05;;;;;;;18.38;4.75;;;;;;;;;;5089697;28;20024;-74
2022/10/29 01:00:30;;;;;;;22.80;5.07;;;;;;;;;;5089728;28;20060;-75
2022/10/29 01:02:55;;;;;;;15.82;5.50;;;;;;;;;;5090259;28;20027;-74
2022/10/29 01:05:24;;;;;;;15.88;4.50;;;;;;;;;;5090162;28;20016;-76
2022/10/29 01:07:49;;;;;;;17.05;5.35;;;;;;;;;;5090292;28;20024;-74
2022/10/29 01:10:21;;;;;;;19.08;5.07;;;;;;;;;;5089670;28;20028;-74
2022/10/29 01:13:04;;;;;;;18.70;5.03;;;;;;;;;;5089802;28;20024;-75
2022/10/29 01:15:43;;;;;;;22.52;5.15;;;;;;;;;;5089950;28;20047;-74
2022/10/29 01:18:29;;;;;;;19.55;5.15;;;;;;;;;;5090101;28;20058;-75
2022/10/29 01:21:19;;;;;;;17.80;4.90;;;;;;;;;;5071422;28;20496;-75
2022/10/29 01:24:15;;;;;;;13.85;4.75;;;;;;;;;;5090051;28;20063;-74
2022/10/29 01:26:43;;;;;;;17.30;4.78;;;;;;;;;;5089755;28;20551;-76
2022/10/29 01:29:28;;;;;;;18.00;5.55;;;;;;;;;;5071621;28;20028;-74
2022/10/29 01:32:14;;;;;;;22.95;5.18;;;;;;;;;;5089396;28;20081;-75
2022/10/29 01:35:21;;;;;;;19.63;5.18;;;;;;;;;;5089924;28;20061;-74
2022/10/29 01:37:49;;;;;;;18.63;4.78;;;;;;;;;;5078844;28;20040;-75
2022/10/29 01:40:26;;;;;;;18.27;4.72;;;;;;;;;;5089617;28;20137;-76
2022/10/29 01:43:05;;;;;;;21.13;5.45;;;;;;;;;;5089465;28;20024;-74
2022/10/29 01:45:35;;;;;;;17.67;5.05;;;;;;;;;;5089732;28;20476;-75
2022/10/29 01:48:07;;;;;;;20.98;5.38;;;;;;;;;;5089501;28;20049;-74
2022/10/29 01:50:35;;;;;;;20.60;5.38;;;;;;;;;;5089406;28;20119;-74
2022/10/29 01:53:03;;;;;;;17.73;4.97;;;;;;;;;;5071080;28;20058;-74
2022/10/29 01:55:34;;;;;;;21.33;5.13;;;;;;;;;;5089251;28;20047;-75
2022/10/29 01:58:02;;;;;;;20.08;5.32;;;;;;;;;;5088315;28;20081;-74
2022/10/29 02:00:39;;;;;;;20.75;5.05;;;;;;;;;;5090896;28;20023;-74
2022/10/29 02:03:36;;;;;;;19.70;4.97;;;;;;;;;;5089460;28;20502;-74
2022/10/29 02:06:14;;;;;;;16.35;5.25;;;;;;;;;;5089727;28;20027;-74
2022/10/29 02:09:21;;;;;;;17.23;5.07;;;;;;;;;;5071588;28;20059;-74
2022/10/29 02:12:17;;;;;;;18.83;5.07;;;;;;;;;;5092236;28;20044;-75
2022/10/29 02:14:50;;;;;;;16.35;4.88;;;;;;;;;;5093193;28;20035;-74
2022/10/29 02:17:16;;;;;;;17.02;4.68;;;;;;;;;;5092893;28;20024;-75
2022/10/29 02:19:41;;;;;;;16.30;4.75;;;;;;;;;;5093066;28;20081;-74
2022/10/29 02:22:07;;;;;;;16.77;4.88;;;;;;;;;;5092627;28;20047;-73
2022/10/29 02:24:32;;;;;;;20.33;4.90;;;;;;;;;;5092964;28;20185;-73
2022/10/29 02:26:58;;;;;;;18.40;5.18;;;;;;;;;;5074529;28;20123;-74
2022/10/29 02:29:23;;;;;;;19.00;5.15;;;;;;;;;;5093010;28;20064;-74
2022/10/29 02:31:48;;;;;;;20.98;5.20;;;;;;;;;;5092465;28;20461;-75
2022/10/29 02:34:14;;;;;;;22.38;4.68;;;;;;;;;;5092829;28;20024;-73
2022/10/29 02:36:39;;;;;;;20.15;4.53;;;;;;;;;;5092622;28;20023;-75
2022/10/29 02:39:05;;;;;;;18.48;4.82;;;;;;;;;;5092795;28;20028;-77
2022/10/29 02:41:30;;;;;;;17.05;4.40;;;;;;;;;;5092319;28;20483;-73
2022/10/29 02:43:55;;;;;;;22.30;5.10;;;;;;;;;;5091294;28;20021;-73
2022/10/29 02:46:22;;;;;;;20.38;5.25;;;;;;;;;;5092535;28;20524;-72
2022/10/29 02:48:48;;;;;;;18.83;4.65;;;;;;;;;;5092910;28;20487;-73
2022/10/29 02:51:15;;;;;;;21.15;5.05;;;;;;;;;;5092379;28;20028;-73
2022/10/29 02:53:41;;;;;;;20.60;5.30;;;;;;;;;;5092433;28;20034;-75
2022/10/29 02:56:06;;;;;;;18.45;5.30;;;;;;;;;;5092244;28;20119;-76
2022/10/29 02:58:32;;;;;;;20.08;5.35;;;;;;;;;;5092117;28;20048;-76
2022/10/29 03:00:57;;;;;;;20.38;5.30;;;;;;;;;;5092200;28;20480;-76
2022/10/29 03:03:23;;;;;;;19.33;4.95;;;;;;;;;;5092338;28;20020;-73
2022/10/29 03:05:49;;;;;;;16.10;4.90;;;;;;;;;;5091021;28;20024;-73
2022/10/29 03:08:14;;;;;;;14.50;4.75;;;;;;;;;;5074032;28;20079;-73
2022/10/29 03:10:39;;;;;;;14.15;4.72;;;;;;;;;;5091793;28;20031;-73
2022/10/29 03:13:05;;;;;;;17.83;4.80;;;;;;;;;;5091659;28;20065;-73
2022/10/29 03:15:30;;;;;;;16.85;5.13;;;;;;;;;;5091880;28;20020;-72
2022/10/29 03:17:55;;;;;;;18.83;4.85;;;;;;;;;;5091724;28;20599;-73
2022/10/29 03:20:21;;;;;;;23.17;5.03;;;;;;;;;;5091613;28;20024;-73
2022/10/29 03:22:46;;;;;;;12.63;4.65;;;;;;;;;;5091690;28;20391;-73
2022/10/29 03:25:12;;;;;;;17.15;4.57;;;;;;;;;;5073762;28;20028;-74
2022/10/29 03:27:44;;;;;;;21.38;4.63;;;;;;;;;;5091328;28;20063;-73
2022/10/29 03:30:11;;;;;;;17.48;4.50;;;;;;;;;;5091503;28;20035;-73
2022/10/29 03:32:40;;;;;;;17.85;4.70;;;;;;;;;;5091143;28;20024;-74
2022/10/29 03:35:07;;;;;;;19.23;4.95;;;;;;;;;;5091484;28;20380;-74
2022/10/29 03:37:33;;;;;;;21.38;5.07;;;;;;;;;;5091341;28;20016;-74
2022/10/29 03:39:58;;;;;;;26.10;5.10;;;;;;;;;;5091534;28;20020;-74
2022/10/29 03:42:24;;;;;;;17.10;4.60;;;;;;;;;;5091020;28;20020;-74
2022/10/29 03:44:49;;;;;;;16.08;3.95;;;;;;;;;;5091552;28;20047;-74
2022/10/29 03:47:14;;;;;;;16.40;4.97;;;;;;;;;;5091089;28;20035;-75
2022/10/29 03:49:40;;;;;;;16.73;4.20;;;;;;;;;;5091186;28;20549;-74
2022/10/29 03:52:05;;;;;;;23.45;4.90;;;;;;;;;;5091239;28;20028;-75
2022/10/29 03:54:31;;;;;;;20.60;5.05;;;;;;;;;;5091166;28;20548;-73
2022/10/29 03:56:56;;;;;;;18.08;4.80;;;;;;;;;;5090958;28;20067;-74
2022/10/29 03:59:21;;;;;;;15.38;4.40;;;;;;;;;;5091112;28;20055;-73
2022/10/29 04:01:47;;;;;;;22.08;4.60;;;;;;;;;;5091126;28;20031;-73
2022/10/29 04:04:12;;;;;;;13.80;4.78;;;;;;;;;;5090937;28;20036;-73
2022/10/29 04:06:37;;;;;;;15.45;4.63;;;;;;;;;;5090934;28;20067;-73
2022/10/29 04:09:03;;;;;;;15.52;4.57;;;;;;;;;;5090686;28;20368;-73
2022/10/29 04:11:28;;;;;;;18.02;4.30;;;;;;;;;;5089467;28;20062;-73
2022/10/29 04:13:54;;;;;;;20.85;4.85;;;;;;;;;;5090536;28;20051;-73
2022/10/29 04:16:19;;;;;;;15.43;4.70;;;;;;;;;;5090895;28;20024;-73
2022/10/29 04:18:48;;;;;;;23.88;4.70;;;;;;;;;;5090610;28;20024;-74
2022/10/29 04:21:15;;;;;;;18.08;5.05;;;;;;;;;;5090648;28;20438;-73
2022/10/29 04:23:40;;;;;;;22.55;4.80;;;;;;;;;;5090488;28;20032;-74
2022/10/29 04:26:06;;;;;;;18.60;4.57;;;;;;;;;;5092709;28;20020;-73
2022/10/29 04:28:31;;;;;;;17.88;4.63;;;;;;;;;;5090197;28;20481;-73
2022/10/29 04:30:57;;;;;;;19.42;5.13;;;;;;;;;;5090961;28;20057;-74
2022/10/29 04:33:22;;;;;;;17.80;4.55;;;;;;;;;;5090099;28;20395;-73
2022/10/29 04:35:54;;;;;;;21.48;4.82;;;;;;;;;;5090613;28;20513;-73
2022/10/29 04:38:20;;;;;;;17.02;5.00;;;;;;;;;;5072105;28;20036;-74
2022/10/29 04:40:45;;;;;;;17.83;4.65;;;;;;;;;;5090202;28;20064;-73
2022/10/29 04:43:11;;;;;;;25.77;5.53;;;;;;;;;;5089932;28;20070;-74
2022/10/29 04:45:36;;;;;;;20.33;5.07;;;;;;;;;;5090487;28;20032;-74
2022/10/29 04:48:03;;;;;;;18.73;5.32;;;;;;;;;;5090444;28;20051;-74
2022/10/29 04:50:30;;;;;;;17.52;5.25;;;;;;;;;;5090361;28;20020;-74
2022/10/29 04:53:03;;;;;;;26.20;5.70;;;;;;;;;;5090168;28;20051;-74
2022/10/29 04:55:29;;;;;;;16.70;5.30;;;;;;;;;;5090000;28;20071;-73
2022/10/29 04:57:55;;;;;;;19.45;5.88;;;;;;;;;;5089992;28;20062;-73
2022/10/29 05:00:21;;;;;;;16.27;5.28;;;;;;;;;;5090077;28;20024;-73
2022/10/29 05:02:51;;;;;;;23.67;5.40;;;;;;;;;;5090180;28;20028;-73
2022/10/29 05:05:17;;;;;;;19.88;5.32;;;;;;;;;;5071798;28;20173;-73
2022/10/29 05:07:43;;;;;;;16.35;4.90;;;;;;;;;;5072150;28;20062;-73
2022/10/29 05:10:09;;;;;;;16.52;5.30;;;;;;;;;;5089778;28;20028;-73
2022/10/29 05:12:35;;;;;;;19.10;5.20;;;;;;;;;;5089887;28;20032;-73
2022/10/29 05:15:00;;;;;;;19.95;5.10;;;;;;;;;;5090146;28;20067;-74
2022/10/29 05:17:26;;;;;;;17.55;4.70;;;;;;;;;;5090258;28;20680;-75
2022/10/29 05:19:51;;;;;;;18.27;5.43;;;;;;;;;;5089788;28;20032;-75
2022/10/29 05:22:17;;;;;;;20.20;5.05;;;;;;;;;;5089840;28;20024;-74
2022/10/29 05:24:42;;;;;;;16.92;5.38;;;;;;;;;;5089679;28;20537;-75
2022/10/29 05:27:08;;;;;;;18.45;5.05;;;;;;;;;;5089628;28;20028;-75
2022/10/29 05:29:33;;;;;;;21.20;4.88;;;;;;;;;;5089622;28;20031;-76
2022/10/29 05:31:58;;;;;;;22.10;4.97;;;;;;;;;;5089889;28;20024;-74
2022/10/29 05:34:24;;;;;;;18.88;4.90;;;;;;;;;;5089726;28;20035;-75
2022/10/29 05:36:50;;;;;;;18.35;4.95;;;;;;;;;;5090008;28;20035;-74
2022/10/29 05:39:15;;;;;;;15.95;5.00;;;;;;;;;;5088312;28;20032;-75
2022/10/29 05:41:41;;;;;;;16.90;4.70;;;;;;;;;;5071293;28;20032;-73
2022/10/29 05:44:06;;;;;;;19.48;5.15;;;;;;;;;;5089936;28;20486;-74
2022/10/29 05:46:32;;;;;;;16.73;5.00;;;;;;;;;;5093803;28;20032;-73
2022/10/29 05:48:57;;;;;;;20.13;4.75;;;;;;;;;;5093462;28;20055;-74
2022/10/29 05:51:22;;;;;;;14.77;4.65;;;;;;;;;;5093641;28;20032;-74
2022/10/29 05:53:48;;;;;;;21.45;5.20;;;;;;;;;;5093438;28;20024;-74
2022/10/29 05:56:14;;;;;;;15.10;4.85;;;;;;;;;;5093721;28;20415;-74
2022/10/29 05:58:39;;;;;;;21.42;5.10;;;;;;;;;;5093429;28;20024;-75
2022/10/29 06:01:09;;;;;;;20.80;4.95;;;;;;;;;;5094344;28;20099;-74
2022/10/29 06:03:34;;;;;;;15.30;4.82;;;;;;;;;;5093378;28;20146;-74
2022/10/29 06:06:00;;;;;;;13.88;5.00;;;;;;;;;;5093508;28;20098;-75
2022/10/29 06:08:25;;;;;;;15.93;5.50;;;;;;;;;;5093185;28;20065;-74
2022/10/29 06:10:51;;;;;;;18.88;4.85;;;;;;;;;;5092939;28;20632;-74
2022/10/29 06:13:21;;;;;;;15.43;5.00;;;;;;;;;;5092827;28;20068;-74
2022/10/29 06:15:48;;;;;;;20.75;4.90;;;;;;;;;;5093489;28;20024;-76
2022/10/29 06:18:14;;;;;;;15.38;4.45;;;;;;;;;;5093329;28;20067;-74
2022/10/29 06:20:42;;;;;;;19.92;5.13;;;;;;;;;;5074771;28;20024;-81
2022/10/29 06:23:09;;;;;;;16.63;4.80;;;;;;;;;;5074892;28;20032;-75
2022/10/29 06:25:34;;;;;;;18.42;5.13;;;;;;;;;;5092727;28;20043;-81
2022/10/29 06:28:05;;;;;;;22.13;4.93;;;;;;;;;;5092730;28;20040;-77
2022/10/29 06:30:32;;;;;;;20.52;5.35;;;;;;;;;;5092722;28;20040;-79
2022/10/29 06:32:58;;;;;;;17.00;5.20;;;;;;;;;;5092925;28;20412;-77
2022/10/29 06:35:24;;;;;;;19.33;5.40;;;;;;;;;;5092645;28;20111;-79
2022/10/29 06:37:49;;;;;;;16.63;4.97;;;;;;;;;;5074490;28;20479;-76
2022/10/29 06:40:15;;;;;;;22.30;5.22;;;;;;;;;;5092503;28;20119;-76
2022/10/29 06:42:41;;;;;;;19.15;4.90;;;;;;;;;;5074777;28;20502;-80
2022/10/29 06:45:08;;;;;;;17.08;5.15;;;;;;;;;;5074124;28;20055;-80
2022/10/29 06:47:40;;;;;;;17.58;4.78;;;;;;;;;;5077362;28;20051;-78
2022/10/29 06:50:07;;;;;;;17.50;4.70;;;;;;;;;;5092070;28;20042;-77
2022/10/29 06:52:33;;;;;;;16.05;4.93;;;;;;;;;;5092980;28;20028;-76
2022/10/29 06:55:01;;;;;;;18.85;5.00;;;;;;;;;;5073958;28;20044;-78
2022/10/29 06:57:27;;;;;;;18.13;4.60;;;;;;;;;;5092623;28;20030;-77
2022/10/29 06:59:52;;;;;;;15.07;5.00;;;;;;;;;;5092424;28;20053;-79
2022/10/29 07:02:20;;;;;;;20.20;5.38;;;;;;;;;;5092094;28;20170;-81
2022/10/29 07:04:46;;;;;;;17.23;5.15;;;;;;;;;;5073969;28;20072;-85
2022/10/29 07:07:12;;;;;;;17.77;5.03;;;;;;;;;;5074653;28;20062;-79
2022/10/29 07:09:39;;;;;;;23.13;4.70;;;;;;;;;;5091934;28;20039;-77
2022/10/29 07:12:05;;;;;;;20.02;5.35;;;;;;;;;;5077788;28;20220;-78
2022/10/29 07:14:30;;;;;;;16.30;4.88;;;;;;;;;;5091784;28;20476;-81
2022/10/29 07:16:55;;;;;;;15.90;5.40;;;;;;;;;;5092750;28;20046;-82
2022/10/29 07:19:21;;;;;;;20.08;5.20;;;;;;;;;;5091894;28;20046;-80
2022/10/29 07:21:46;;;;;;;16.20;4.93;;;;;;;;;;5091990;28;20024;-77
2022/10/29 07:24:12;;;;;;;20.98;5.82;;;;;;;;;;5092087;28;20028;-77
2022/10/29 07:26:37;;;;;;;21.90;5.18;;;;;;;;;;5091880;28;20031;-74
2022/10/29 07:29:03;;;;;;;15.90;5.05;;;;;;;;;;5091704;28;20020;-73
2022/10/29 07:31:30;;;;;;;14.20;5.00;;;;;;;;;;5093664;28;20471;-71
2022/10/29 07:33:56;;;;;;;15.95;4.80;;;;;;;;;;5073278;28;20368;-72
2022/10/29 07:36:22;;;;;;;16.45;5.20;;;;;;;;;;5096566;28;20023;-72
2022/10/29 07:38:47;;;;;;;15.90;5.00;;;;;;;;;;5096524;28;20081;-73
2022/10/29 07:41:13;;;;;;;19.10;4.90;;;;;;;;;;5091146;28;20028;-73
2022/10/29 07:43:38;;;;;;;13.13;4.65;;;;;;;;;;5091383;28;20028;-74
2022/10/29 07:46:04;;;;;;;18.45;4.75;;;;;;;;;;5091925;28;20023;-73
2022/10/29 07:48:30;;;;;;;20.95;5.10;;;;;;;;;;5091770;28;20035;-75
2022/10/29 07:51:00;;;;;;;17.15;5.20;;;;;;;;;;5080497;28;20580;-74
2022/10/29 07:53:25;;;;;;;17.48;5.43;;;;;;;;;;5056710;28;20031;-76
2022/10/29 07:55:54;;;;;;;16.85;4.90;;;;;;;;;;5083070;28;20044;-79
2022/10/29 07:58:20;;;;;;;15.02;4.95;;;;;;;;;;5089802;28;20028;-81
2022/10/29 08:00:46;;;;;;;18.88;5.22;;;;;;;;;;5090379;28;20020;-85
2022/10/29 08:03:12;;;;;;;20.92;5.20;;;;;;;;;;5090095;28;20096;-81
2022/10/29 08:05:39;;;;;;;19.40;4.97;;;;;;;;;;5091139;28;20441;-78
2022/10/29 08:08:05;;;;;;;18.73;5.07;;;;;;;;;;5090624;28;20513;-79
2022/10/29 08:10:32;;;;;;;15.07;5.00;;;;;;;;;;5090776;28;20028;-87
2022/10/29 08:13:02;;;;;;;23.02;5.18;;;;;;;;;;5092927;28;20526;-85
2022/10/29 08:15:30;;;;;;;21.35;5.47;;;;;;;;;;5091097;28;20023;-79
2022/10/29 08:17:56;;;;;;;19.52;5.15;;;;;;;;;;5091098;28;20020;-83
2022/10/29 08:20:24;;;;;;;19.27;5.18;;;;;;;;;;5090753;28;20032;-77
2022/10/29 08:22:49;;;;;;;16.90;4.68;;;;;;;;;;5090692;28;20042;-82
2022/10/29 08:25:15;;;;;;;16.50;5.32;;;;;;;;;;5091028;28;20491;-75
2022/10/29 08:27:41;;;;;;;15.98;4.70;;;;;;;;;;5090592;28;20080;-80
2022/10/29 08:30:08;;;;;;;15.20;5.13;;;;;;;;;;5090457;28;20112;-78
2022/10/29 08:32:34;;;;;;;20.30;5.00;;;;;;;;;;5090281;28;20024;-77
2022/10/29 08:35:00;;;;;;;16.10;4.80;;;;;;;;;;5090768;28;20028;-80
2022/10/29 08:37:26;;;;;;;17.98;4.88;;;;;;;;;;5079706;28;20024;-78
2022/10/29 08:39:51;;;;;;;18.15;5.07;;;;;;;;;;5076425;28;20021;-80
2022/10/29 08:42:39;;;;;;;15.73;4.82;;;;;;;;;;5086997;28;20016;-80
2022/10/29 08:45:23;;;;;;;20.95;4.88;;;;;;;;;;5070574;28;20016;-82
2022/10/29 08:48:31;;;;;;;22.77;5.22;;;;;;;;;;5091269;28;20475;-76
2022/10/29 08:51:13;;;;;;;17.75;4.55;;;;;;;;;;5062701;28;20673;-77
2022/10/29 08:53:44;;;;;;;19.50;4.70;;;;;;;;;;5089653;28;20115;-79
2022/10/29 08:56:36;;;;;;;17.60;5.15;;;;;;;;;;5071798;28;20105;-79
2022/10/29 08:59:12;;;;;;;13.93;4.25;;;;;;;;;;5089281;28;20044;-75
2022/10/29 09:01:38;;;;;;;13.90;4.53;;;;;;;;;;5090098;28;20561;-75
2022/10/29 09:04:19;;;;;;;13.90;4.93;;;;;;;;;;5089808;28;20032;-76
2022/10/29 09:07:22;;;;;;;15.75;5.00;;;;;;;;;;5089976;28;20388;-75
2022/10/29 09:09:53;;;;;;;14.55;4.82;;;;;;;;;;5071672;28;20387;-76
2022/10/29 09:12:51;;;;;;;16.17;4.60;;;;;;;;;;5089533;28;20077;-75
2022/10/29 09:15:52;;;;;;;19.27;4.43;;;;;;;;;;5071896;28;20035;-75
2022/10/29 09:18:26;;;;;;;14.57;5.18;;;;;;;;;;5090777;28;20058;-76
2022/10/29 09:20:52;;;;;;;16.17;4.85;;;;;;;;;;5075668;28;20515;-76
2022/10/29 09:23:48;;;;;;;18.42;4.63;;;;;;;;;;5075539;28;20058;-75
2022/10/29 09:26:24;;;;;;;16.55;5.15;;;;;;;;;;5075318;28;20475;-74
2022/10/29 09:29:24;;;;;;;18.40;5.20;;;;;;;;;;5094022;28;20467;-73
2022/10/29 09:31:52;;;;;;;;;;;;;;;;;;5094270;28;20028;-76
2022/10/29 09:34:27;;;;;;;20.25;5.03;;;;;;;;;;5093889;28;19912;-74
2022/10/29 09:36:54;;;;;;;15.40;4.63;;;;;;;;;;5093693;28;20032;-78
2022/10/29 09:39:32;;;;;;;17.10;4.53;;;;;;;;;;5093782;28;20077;-76
2022/10/29 09:42:00;;;;;;;18.13;4.90;;;;;;;;;;5093332;28;20035;-73
2022/10/29 09:44:39;;;;;;;17.55;4.72;;;;;;;;;;5093515;28;20480;-73
2022/10/29 09:47:22;;;;;;;20.13;5.25;;;;;;;;;;5093486;28;20023;-75
2022/10/29 09:50:06;;;;;;;18.85;5.15;;;;;;;;;;5093577;28;20158;-78
2022/10/29 09:52:35;;;;;;;19.42;4.80;;;;;;;;;;5075052;28;20399;-75
2022/10/29 09:55:04;;;;;;;11.77;4.60;;;;;;;;;;5093401;28;20066;-77
2022/10/29 09:57:33;;;;;;;15.02;4.90;;;;;;;;;;5093040;28;20044;-79
2022/10/29 10:00:01;;;;;;;19.20;4.95;;;;;;;;;;5093458;28;20376;-77
2022/10/29 10:02:36;;;;;;;22.08;4.90;;;;;;;;;;5093588;28;20032;-77
2022/10/29 10:05:11;;;;;;;16.92;4.68;;;;;;;;;;5075645;28;20028;-76
2022/10/29 10:07:36;;;;;;;17.90;4.97;;;;;;;;;;5075383;28;20683;-75
2022/10/29 10:10:04;;;;;;;16.27;4.60;;;;;;;;;;5093826;28;20047;-78
2022/10/29 10:12:36;;;;;;;22.00;5.28;;;;;;;;;;5092701;28;20052;-78
2022/10/29 10:15:03;;;;;;;17.17;5.00;;;;;;;;;;5074999;28;20117;-80
2022/10/29 10:17:56;;;;;;;15.00;4.70;;;;;;;;;;5093117;28;20092;-78
2022/10/29 10:20:35;;;;;;;16.65;4.97;;;;;;;;;;5093280;28;20126;-77
2022/10/29 10:23:01;;;;;;;18.60;4.72;;;;;;;;;;5092874;28;20020;-75
2022/10/29 10:25:34;;;;;;;23.85;5.50;;;;;;;;;;5092929;28;20089;-78
2022/10/29 10:28:16;;;;;;;18.05;4.60;;;;;;;;;;5074398;28;20124;-77
2022/10/29 10:30:43;;;;;;;13.82;4.30;;;;;;;;;;5091795;28;20111;-81
2022/10/29 10:33:24;;;;;;;22.75;5.25;;;;;;;;;;5092365;28;20030;-79
2022/10/29 10:35:51;;;;;;;18.60;5.10;;;;;;;;;;5093177;28;20028;-77
2022/10/29 10:38:16;;;;;;;17.02;5.05;;;;;;;;;;5092432;28;20052;-80
2022/10/29 10:40:41;;;;;;;15.25;5.22;;;;;;;;;;5074602;28;20495;-77
2022/10/29 10:43:19;;;;;;;17.05;5.18;;;;;;;;;;5092059;28;20039;-79
2022/10/29 10:45:53;;;;;;;17.95;5.15;;;;;;;;;;5092234;28;20499;-82
2022/10/29 10:48:22;;;;;;;16.48;4.95;;;;;;;;;;5091981;28;20035;-79
2022/10/29 10:50:47;;;;;;;16.42;5.05;;;;;;;;;;5091925;28;20024;-80
2022/10/29 10:53:19;;;;;;;20.10;5.63;;;;;;;;;;5091724;28;20409;-76
2022/10/29 10:55:56;;;;;;;15.63;5.03;;;;;;;;;;5092618;28;20047;-80
2022/10/29 10:58:40;;;;;;;14.65;5.57;;;;;;;;;;5092402;28;20028;-80
2022/10/29 11:01:32;;;;;;;18.15;5.18;;;;;;;;;;5092265;28;20460;-79
2022/10/29 11:04:24;;;;;;;18.05;5.10;;;;;;;;;;5091810;28;20107;-80
2022/10/29 11:06:52;;;;;;;13.50;5.25;;;;;;;;;;5092134;28;20115;-78
2022/10/29 11:09:42;;;;;;;15.15;5.10;;;;;;;;;;5092024;28;20592;-80
2022/10/29 11:12:32;;;;;;;16.25;5.15;;;;;;;;;;5091804;28;20618;-79
2022/10/29 11:15:05;;;;;;;18.90;4.70;;;;;;;;;;5092190;28;20047;-80
2022/10/29 11:17:46;;;;;;;16.80;4.90;;;;;;;;;;5091661;28;20101;-78
2022/10/29 11:20:31;;;;;;;20.38;5.18;;;;;;;;;;5092019;28;20483;-79
2022/10/29 11:23:34;;;;;;;18.33;5.57;;;;;;;;;;5091561;28;20031;-81
2022/10/29 11:26:39;;;;;;;16.48;5.40;;;;;;;;;;5091632;28;20149;-78
2022/10/29 11:29:21;;;;;;;16.10;5.28;;;;;;;;;;5073327;28;20059;-82
2022/10/29 11:32:18;;;;;;;15.45;5.18;;;;;;;;;;5073552;28;20507;-77
2022/10/29 11:35:07;;;;;;;12.52;4.78;;;;;;;;;;5091527;28;20028;-78
2022/10/29 11:37:33;;;;;;;11.23;4.97;;;;;;;;;;5091555;28;20032;-77
2022/10/29 11:40:20;;;;;;;15.48;4.75;;;;;;;;;;5091570;28;20032;-78
2022/10/29 11:42:46;;;;;;;16.40;5.25;;;;;;;;;;5091007;28;20028;-81
2022/10/29 11:45:16;;;;;;;20.63;4.97;;;;;;;;;;5091342;28;20036;-81
2022/10/29 11:47:50;;;;;;;13.90;5.00;;;;;;;;;;5073003;28;20035;-81
2022/10/29 11:50:40;;;;;;;19.58;5.25;;;;;;;;;;5091268;28;20038;-81
2022/10/29 11:53:28;;;;;;;13.27;5.00;;;;;;;;;;5091240;28;20032;-78
2022/10/29 11:56:05;;;;;;;14.63;4.55;;;;;;;;;;5091181;28;20546;-80
2022/10/29 11:58:40;;;;;;;14.95;5.20;;;;;;;;;;5091125;28;20024;-80
2022/10/29 12:01:34;;;;;;;14.25;4.60;;;;;;;;;;5091033;28;20036;-80
2022/10/29 12:04:25;;;;;;;15.65;4.93;;;;;;;;;;5048726;28;20492;-80
2022/10/29 12:07:17;;;;;;;15.02;4.90;;;;;;;;;;5091056;28;20087;-79
2022/10/29 12:10:04;;;;;;;12.18;5.03;;;;;;;;;;5090756;28;20024;-80
2022/10/29 12:12:35;;;;;;;15.80;5.00;;;;;;;;;;5090963;28;20024;-81
2022/10/29 12:15:04;;;;;;;18.17;5.43;;;;;;;;;;5090721;28;20706;-81
2022/10/29 12:17:42;;;;;;;18.00;4.90;;;;;;;;;;5090922;28;20077;-79
2022/10/29 12:20:15;;;;;;;15.60;5.45;;;;;;;;;;5090503;28;20028;-82
2022/10/29 12:22:59;;;;;;;12.05;5.40;;;;;;;;;;5072468;28;20403;-78
2022/10/29 12:25:44;;;;;;;15.90;5.20;;;;;;;;;;5090536;28;20032;-80
2022/10/29 12:28:18;;;;;;;14.63;5.55;;;;;;;;;;5090401;28;20068;-80
2022/10/29 12:31:01;;;;;;;14.77;4.97;;;;;;;;;;5090598;28;20027;-78
2022/10/29 12:33:36;;;;;;;20.83;5.47;;;;;;;;;;5090303;28;20024;-79
2022/10/29 12:36:05;;;;;;;12.52;4.80;;;;;;;;;;5090466;28;20152;-79
2022/10/29 12:38:36;;;;;;;13.23;4.90;;;;;;;;;;5090406;28;20024;-79
2022/10/29 12:41:08;;;;;;;12.95;5.07;;;;;;;;;;5072728;28;20024;-81
2022/10/29 12:43:37;;;;;;;18.13;5.18;;;;;;;;;;5071919;28;20039;-80
2022/10/29 12:46:07;;;;;;;22.70;5.30;;;;;;;;;;5091135;28;20027;-81
2022/10/29 12:48:40;;;;;;;13.68;4.95;;;;;;;;;;5090569;28;20036;-79
2022/10/29 12:51:11;;;;;;;18.15;5.13;;;;;;;;;;5090359;28;20064;-81
2022/10/29 12:54:04;;;;;;;22.20;5.15;;;;;;;;;;5089431;28;20031;-78
2022/10/29 12:56:30;;;;;;;17.75;5.78;;;;;;;;;;5090014;28;20043;-81
2022/10/29 12:58:58;;;;;;;16.67;5.53;;;;;;;;;;5090250;28;20594;-82
2022/10/29 13:01:26;;;;;;;14.98;5.28;;;;;;;;;;5090644;28;20055;-80
2022/10/29 13:03:51;;;;;;;14.25;5.47;;;;;;;;;;5089913;28;20059;-78
2022/10/29 13:06:42;;;;;;;14.32;5.25;;;;;;;;;;5090532;28;20536;-79
2022/10/29 13:09:18;;;;;;;16.35;5.07;;;;;;;;;;5089880;28;20039;-78
2022/10/29 13:11:52;;;;;;;19.40;5.35;;;;;;;;;;5089918;28;20395;-76
2022/10/29 13:14:37;;;;;;;12.25;5.25;;;;;;;;;;5089719;28;20475;-75
2022/10/29 13:17:06;;;;;;;13.07;5.00;;;;;;;;;;5072378;28;20040;-78
2022/10/29 13:19:53;;;;;;;16.45;5.07;;;;;;;;;;5071682;28;20639;-76
2022/10/29 13:22:50;;;;;;;17.05;5.38;;;;;;;;;;5090410;28;20024;-82
2022/10/29 13:25:33;;;;;;;15.48;5.50;;;;;;;;;;5089961;28;20039;-78
2022/10/29 13:28:11;;;;;;;21.75;5.43;;;;;;;;;;5089623;28;20103;-79
2022/10/29 13:30:38;;;;;;;13.20;5.25;;;;;;;;;;5089622;28;20040;-76
2022/10/29 13:33:19;;;;;;;17.42;5.40;;;;;;;;;;5090013;28;20054;-76
2022/10/29 13:35:56;;;;;;;13.27;4.90;;;;;;;;;;5071455;28;20027;-77
2022/10/29 13:38:49;;;;;;;15.50;6.07;;;;;;;;;;5089836;28;20027;-83
2022/10/29 13:41:23;;;;;;;14.98;5.03;;;;;;;;;;5090416;28;20031;-82
2022/10/29 13:44:10;;;;;;;15.43;5.03;;;;;;;;;;5071542;28;20134;-82
2022/10/29 13:46:44;;;;;;;20.67;6.03;;;;;;;;;;5090140;28;20020;-78
2022/10/29 13:49:12;;;;;;;13.05;5.40;;;;;;;;;;5089826;28;20035;-80
2022/10/29 13:51:52;;;;;;;18.85;5.88;;;;;;;;;;5089799;28;20039;-79
2022/10/29 13:54:24;;;;;;;15.65;5.38;;;;;;;;;;5089339;28;20020;-75
2022/10/29 13:57:02;;;;;;;19.10;6.07;;;;;;;;;;5089406;28;20036;-75
2022/10/29 13:59:39;;;;;;;12.43;5.32;;;;;;;;;;5089720;28;20043;-75
2022/10/29 14:02:20;;;;;;;12.73;5.13;;;;;;;;;;5089632;28;20027;-81
2022/10/29 14:04:51;;;;;;;15.00;5.80;;;;;;;;;;5089435;28;20089;-78
2022/10/29 14:07:27;;;;;;;13.68;4.97;;;;;;;;;;5093327;28;20016;-81
2022/10/29 14:09:57;;;;;;;19.73;5.50;;;;;;;;;;5093212;28;20039;-82
2022/10/29 14:12:28;;;;;;;17.92;5.60;;;;;;;;;;5093127;28;20020;-75
2022/10/29 14:15:09;;;;;;;14.35;5.15;;;;;;;;;;5092818;28;20020;-80
2022/10/29 14:17:34;;;;;;;16.85;5.78;;;;;;;;;;5093276;28;20028;-83
2022/10/29 14:20:00;;;;;;;13.68;5.68;;;;;;;;;;5092839;28;20075;-77
2022/10/29 14:22:32;;;;;;;19.50;6.28;;;;;;;;;;5093060;28;20031;-75
2022/10/29 14:24:58;;;;;;;18.73;5.40;;;;;;;;;;5092790;28;20046;-75
2022/10/29 14:27:23;;;;;;;19.40;5.55;;;;;;;;;;5092910;28;20015;-75
2022/10/29 14:29:49;;;;;;;16.90;5.22;;;;;;;;;;5092738;28;20385;-76
2022/10/29 14:32:18;;;;;;;14.60;5.40;;;;;;;;;;5093105;28;20028;-76
2022/10/29 14:34:44;;;;;;;18.73;5.53;;;;;;;;;;5074053;28;20024;-80
2022/10/29 14:37:30;;;;;;;16.23;5.35;;;;;;;;;;5092852;28;20032;-76
2022/10/29 14:40:00;;;;;;;19.45;5.82;;;;;;;;;;5092873;28;20598;-79
2022/10/29 14:42:39;;;;;;;19.33;5.72;;;;;;;;;;5074385;28;20107;-77
2022/10/29 14:45:15;;;;;;;13.25;5.53;;;;;;;;;;5073926;28;20024;-80
2022/10/29 14:47:41;;;;;;;19.55;5.35;;;;;;;;;;5074555;28;20024;-79
2022/10/29 14:50:17;;;;;;;18.25;5.85;;;;;;;;;;5092286;28;20122;-78
2022/10/29 14:52:46;;;;;;;16.70;5.50;;;;;;;;;;5092550;28;20066;-81
2022/10/29 14:55:37;;;;;;;16.35;5.70;;;;;;;;;;5091965;28;20498;-81
2022/10/29 14:58:35;;;;;;;14.15;5.45;;;;;;;;;;5092279;28;20103;-77